Terminal Aerodrome Forecast
Issued by NWS

Home | Current Version | Previous Version | Graphics & Text | Print | Product List | Glossary On
Versions: 1 2 3 4 5 6 7 8 9 10 11 12 13 14 15 16 17 18 19 20 21 22 23 24 25 26 27 28 29 30 31 32 33 34 35 36
000
FTUS43 KLOT 140200 CCA
TAFMDW
TAF COR
KMDW 140208Z 1402/1424 19015G25KT P6SM BKN050
     FM141000 35020G30KT P6SM VCSH OVC009
     FM141400 35023G35KT P6SM OVC015
     FM142100 36015G25KT 2SM -SN BR OVC020=

USA.gov is the U.S. government's official web portal to all federal, state and local government web resources and services.